Hlavní strana
METAR-TAF:

METAR-TAF

Letiště :

Isbell Field

Fort Payne, Alabama, Spojené státy americké

zeměpisná šířka: 34-28-25N, zeměpisná délka: 085-43-17W, výška: 267 m

Aktuální stav počasí

Zpráva byla vytvořena před 12 minutami, v 17:15 UTC
Severní vítr 8 kt
Teplota 10°C
Vlhkost vzduchu 50%
Tlak 1022 hPa
Viditelnost: 16.1 km
Polojasno ve výšce 6000 ft
Oblačno až skoro zataženo ve výšce 8500 ft
Zataženo ve výšce 9000 ft

METAR: K4A9 151715Z AUTO 01008KT 10SM SCT060 BKN085 OVC090 10/00 A3018 RMK AO2 T00950002

Čas: 11:27 (17:27 UTC)


TAF: chybějící

Stav a předpovědi počasí z více než 4 000 letišť (zprávy METAR a TAF).

Červené a žluté tečky na mapě představují dostupné meteorologické stanice.

Když kurzor umístíte na tečku, zobrazí se název stanice.

Pak kliknutím zobrazíte stav a předpověď počasí.

Chcete-li změnit mapu, kliknutím na zelené tlačítko se znaménkem +mapu přiblížíte, kliknutím na zelené tlačítko se znaménkem – mapu oddálíte a kliknutím na zelené šipky přejdete na sousední mapy.


METAR-TAF: